createdAt,value
2022-12-02T00:00:48.116Z,50.804371
2022-12-02T00:01:48.123Z,50.804401
2022-12-02T00:02:48.212Z,50.804375
2022-12-02T00:03:48.236Z,50.804398
2022-12-02T00:04:48.199Z,50.804417
2022-12-02T00:05:48.073Z,50.804329
2022-12-02T00:06:48.047Z,50.804333
2022-12-02T00:07:50.651Z,50.804367
2022-12-02T00:08:48.044Z,50.804352
2022-12-02T00:09:48.101Z,50.804401
2022-12-02T00:10:48.039Z,50.804363
2022-12-02T00:11:48.029Z,50.804340
2022-12-02T00:12:48.013Z,50.804314
2022-12-02T00:13:47.994Z,50.804279
2022-12-02T00:14:48.119Z,50.804276
2022-12-02T00:15:48.051Z,50.804340
2022-12-02T00:16:48.047Z,50.804317
2022-12-02T00:17:47.985Z,50.804245
2022-12-02T00:18:47.957Z,50.804306
2022-12-02T00:19:47.943Z,50.804329
2022-12-02T00:20:47.954Z,50.804413
2022-12-02T00:21:47.998Z,50.804333
2022-12-02T00:22:47.961Z,50.804253
2022-12-02T00:23:48.067Z,50.804291
2022-12-02T00:24:48.169Z,50.804314
2022-12-02T00:25:47.911Z,50.804283
2022-12-02T00:26:47.897Z,50.804306
2022-12-02T00:27:47.961Z,50.804306
2022-12-02T00:28:47.883Z,50.804321
2022-12-02T00:29:47.872Z,50.804287
2022-12-02T00:30:47.879Z,50.804253
2022-12-02T00:31:47.891Z,50.804302
2022-12-02T00:32:47.872Z,50.804371
2022-12-02T00:33:47.884Z,50.804317
2022-12-02T00:34:48.152Z,50.804321
2022-12-02T00:35:47.852Z,50.804325
2022-12-02T00:36:47.839Z,50.804306
2022-12-02T00:37:47.827Z,50.804249
2022-12-02T00:38:47.830Z,50.804184
2022-12-02T00:39:47.885Z,50.804214
2022-12-02T00:40:47.815Z,50.804214
2022-12-02T00:41:47.806Z,50.804264
2022-12-02T00:42:47.783Z,50.804291
2022-12-02T00:43:47.810Z,50.804237
2022-12-02T00:44:47.806Z,50.804253
2022-12-02T00:45:47.851Z,50.804321
2022-12-02T00:46:47.749Z,50.804291
2022-12-02T00:47:47.764Z,50.804283
2022-12-02T00:48:47.740Z,50.804276
2022-12-02T00:49:47.779Z,50.804268
2022-12-02T00:50:47.735Z,50.804249
2022-12-02T00:51:47.782Z,50.804237
2022-12-02T00:52:47.710Z,50.804279
2022-12-02T00:53:47.729Z,50.804234
2022-12-02T00:54:47.880Z,50.804245
2022-12-02T00:55:47.710Z,50.804276
2022-12-02T00:56:47.721Z,50.804295
2022-12-02T00:57:48.111Z,50.804295
2022-12-02T00:58:47.672Z,50.804268
2022-12-02T00:59:47.678Z,50.804317
2022-12-02T01:00:47.705Z,50.804329
2022-12-02T01:01:47.730Z,50.804295
2022-12-02T01:02:47.675Z,50.804276
2022-12-02T01:03:47.690Z,50.804241
2022-12-02T01:04:47.725Z,50.804283
2022-12-02T01:05:47.638Z,50.804283
2022-12-02T01:06:47.634Z,50.804295
2022-12-02T01:07:47.739Z,50.804287
2022-12-02T01:08:47.597Z,50.804329
2022-12-02T01:09:47.653Z,50.804344
2022-12-02T01:10:47.592Z,50.804310
2022-12-02T01:11:47.579Z,50.804283
2022-12-02T01:12:47.587Z,50.804226
2022-12-02T01:13:47.553Z,50.804298
2022-12-02T01:14:47.688Z,50.804302
2022-12-02T01:15:47.640Z,50.804295
2022-12-02T01:16:47.614Z,50.804321
2022-12-02T01:17:47.546Z,50.804356
2022-12-02T01:18:47.526Z,50.804340
2022-12-02T01:19:47.512Z,50.804382
2022-12-02T01:20:47.513Z,50.804314
2022-12-02T01:21:47.544Z,50.804333
2022-12-02T01:22:47.513Z,50.804337
2022-12-02T01:23:47.535Z,50.804340
2022-12-02T01:24:47.523Z,50.804333
2022-12-02T01:25:47.479Z,50.804306
2022-12-02T01:26:47.488Z,50.804283
2022-12-02T01:27:47.537Z,50.804291
2022-12-02T01:28:47.477Z,50.804310
2022-12-02T01:29:47.445Z,50.804291
2022-12-02T01:30:47.455Z,50.804276
2022-12-02T01:31:47.524Z,50.804359
2022-12-02T01:32:47.424Z,50.804401
2022-12-02T01:33:47.488Z,50.804405
2022-12-02T01:34:47.544Z,50.804398
2022-12-02T01:35:47.412Z,50.804344
2022-12-02T01:36:47.413Z,50.804390
2022-12-02T01:37:47.390Z,50.804302
2022-12-02T01:38:47.385Z,50.804356
2022-12-02T01:39:47.682Z,50.804363
2022-12-02T01:40:47.403Z,50.804485
2022-12-02T01:41:47.367Z,50.804455
2022-12-02T01:42:47.391Z,50.804356
2022-12-02T01:43:47.367Z,50.804302
2022-12-02T01:44:47.360Z,50.804340
2022-12-02T01:45:47.445Z,50.804298
2022-12-02T01:46:47.349Z,50.804317
2022-12-02T01:47:47.320Z,50.804287
2022-12-02T01:48:47.342Z,50.804256
2022-12-02T01:49:47.345Z,50.804264
2022-12-02T01:50:47.341Z,50.804287
2022-12-02T01:51:47.361Z,50.804298
2022-12-02T01:52:47.302Z,50.804268
2022-12-02T01:53:47.290Z,50.804375
2022-12-02T01:54:47.299Z,50.804329
2022-12-02T01:55:47.280Z,50.804291
2022-12-02T01:56:47.266Z,50.804283
2022-12-02T01:57:47.348Z,50.804279
2022-12-02T01:58:47.265Z,50.804382
2022-12-02T01:59:47.260Z,50.804390
2022-12-02T02:00:47.299Z,50.804314
2022-12-02T02:01:47.235Z,50.804314
2022-12-02T02:02:47.290Z,50.804291
2022-12-02T02:03:47.280Z,50.804363
2022-12-02T02:04:47.204Z,50.804340
2022-12-02T02:05:47.217Z,50.804356
2022-12-02T02:06:47.205Z,50.804363
2022-12-02T02:07:47.220Z,50.804333
2022-12-02T02:08:47.185Z,50.804340
2022-12-02T02:09:47.247Z,50.804337
2022-12-02T02:10:47.161Z,50.804317
2022-12-02T02:11:47.152Z,50.804321
2022-12-02T02:12:47.152Z,50.804314
2022-12-02T02:13:47.152Z,50.804340
2022-12-02T02:14:47.155Z,50.804321
2022-12-02T02:15:47.197Z,50.804295
2022-12-02T02:16:47.178Z,50.804325
2022-12-02T02:17:47.147Z,50.804344
2022-12-02T02:18:47.111Z,50.804287
2022-12-02T02:19:47.122Z,50.804352
2022-12-02T02:20:47.124Z,50.804333
2022-12-02T02:21:47.142Z,50.804337
2022-12-02T02:22:47.089Z,50.804325
2022-12-02T02:23:47.083Z,50.804329
2022-12-02T02:24:47.072Z,50.804264
2022-12-02T02:25:47.071Z,50.804283
2022-12-02T02:26:47.067Z,50.804317
2022-12-02T02:27:47.102Z,50.804295
2022-12-02T02:28:47.041Z,50.804310
2022-12-02T02:29:47.042Z,50.804276
2022-12-02T02:30:47.121Z,50.804260
2022-12-02T02:31:47.009Z,50.804287
2022-12-02T02:32:47.031Z,50.804260
2022-12-02T02:33:47.048Z,50.804256
2022-12-02T02:34:46.997Z,50.804295
2022-12-02T02:35:46.997Z,50.804390
2022-12-02T02:36:47.006Z,50.804295
2022-12-02T02:37:46.996Z,50.804310
2022-12-02T02:38:46.973Z,50.804298
2022-12-02T02:39:47.020Z,50.804317
2022-12-02T02:40:46.962Z,50.804302
2022-12-02T02:41:46.950Z,50.804337
2022-12-02T02:42:46.950Z,50.804363
2022-12-02T02:43:46.927Z,50.804340
2022-12-02T02:44:46.926Z,50.804325
2022-12-02T02:45:46.998Z,50.804333
2022-12-02T02:46:46.924Z,50.804306
2022-12-02T02:47:46.907Z,50.804340
2022-12-02T02:48:46.901Z,50.804398
2022-12-02T02:49:46.892Z,50.804348
2022-12-02T02:50:46.893Z,50.804340
2022-12-02T02:51:46.930Z,50.804432
2022-12-02T02:52:46.928Z,50.804337
2022-12-02T02:53:46.860Z,50.804287
2022-12-02T02:54:46.847Z,50.804279
2022-12-02T02:55:46.864Z,50.804317
2022-12-02T02:56:46.966Z,50.804314
2022-12-02T02:57:46.895Z,50.804298
2022-12-02T02:58:46.846Z,50.804333
2022-12-02T02:59:46.835Z,50.804272
2022-12-02T03:00:46.843Z,50.804310
2022-12-02T03:01:46.860Z,50.804295
2022-12-02T03:02:46.873Z,50.804272
2022-12-02T03:03:47.067Z,50.804325
2022-12-02T03:04:46.780Z,50.804298
2022-12-02T03:05:46.778Z,50.804340
2022-12-02T03:06:46.757Z,50.804340
2022-12-02T03:07:46.817Z,50.804317
2022-12-02T03:08:46.759Z,50.804283
2022-12-02T03:09:46.797Z,50.804306
2022-12-02T03:10:46.752Z,50.804314
2022-12-02T03:11:46.724Z,50.804302
2022-12-02T03:12:46.713Z,50.804321
2022-12-02T03:13:46.738Z,50.804302
2022-12-02T03:14:46.726Z,50.804317
2022-12-02T03:15:46.759Z,50.804337
2022-12-02T03:16:46.807Z,50.804295
2022-12-02T03:17:46.697Z,50.804321
2022-12-02T03:18:46.672Z,50.804363
2022-12-02T03:19:46.686Z,50.804325
2022-12-02T03:20:46.682Z,50.804276
2022-12-02T03:21:46.698Z,50.804298
2022-12-02T03:22:46.645Z,50.804272
2022-12-02T03:23:46.654Z,50.804359
2022-12-02T03:24:46.648Z,50.804306
2022-12-02T03:25:46.625Z,50.804276
2022-12-02T03:26:46.641Z,50.804306
2022-12-02T03:27:46.683Z,50.804340
2022-12-02T03:28:46.620Z,50.804329
2022-12-02T03:29:46.603Z,50.804321
2022-12-02T03:30:46.679Z,50.804310
2022-12-02T03:31:46.611Z,50.804306
2022-12-02T03:32:46.616Z,50.804340
2022-12-02T03:33:46.650Z,50.804340
2022-12-02T03:34:46.563Z,50.804314
2022-12-02T03:35:46.562Z,50.804329
2022-12-02T03:36:46.570Z,50.804333
2022-12-02T03:37:46.557Z,50.804348
2022-12-02T03:38:46.561Z,50.804287
2022-12-02T03:39:46.610Z,50.804279
2022-12-02T03:40:46.540Z,50.804249
2022-12-02T03:41:46.525Z,50.804306
2022-12-02T03:42:46.530Z,50.804295
2022-12-02T03:43:46.519Z,50.804279
2022-12-02T03:44:46.510Z,50.804310
2022-12-02T03:45:46.613Z,50.804291
2022-12-02T03:46:46.602Z,50.804291
2022-12-02T03:47:46.491Z,50.804329
2022-12-02T03:48:46.481Z,50.804413
2022-12-02T03:49:46.478Z,50.804359
2022-12-02T03:50:46.460Z,50.804348
2022-12-02T03:51:46.502Z,50.804314
2022-12-02T03:52:46.457Z,50.804363
2022-12-02T03:53:46.455Z,50.804394
2022-12-02T03:54:50.474Z,50.804386
2022-12-02T03:55:47.441Z,50.804363
2022-12-02T03:56:46.431Z,50.804405
2022-12-02T03:57:46.484Z,50.804405
2022-12-02T03:58:46.403Z,50.804447
2022-12-02T03:59:46.383Z,50.804420
2022-12-02T04:00:46.417Z,50.804401
2022-12-02T04:01:46.469Z,50.804325
2022-12-02T04:02:46.452Z,50.804359
2022-12-02T04:03:46.464Z,50.804379
2022-12-02T04:04:46.363Z,50.804375
2022-12-02T04:05:49.572Z,50.804379
2022-12-02T04:06:46.358Z,50.804359
2022-12-02T04:07:46.407Z,50.804333
2022-12-02T04:08:46.336Z,50.804455
2022-12-02T04:09:46.400Z,50.804367
2022-12-02T04:10:46.357Z,50.804348
2022-12-02T04:11:46.322Z,50.804337
2022-12-02T04:12:46.310Z,50.804325
2022-12-02T04:13:46.301Z,50.804401
2022-12-02T04:14:46.303Z,50.804394
2022-12-02T04:15:46.395Z,50.804390
2022-12-02T04:16:46.286Z,50.804382
2022-12-02T04:17:46.266Z,50.804417
2022-12-02T04:18:46.264Z,50.804436
2022-12-02T04:19:46.300Z,50.804413
2022-12-02T04:20:46.246Z,50.804386
2022-12-02T04:21:46.264Z,50.804401
2022-12-02T04:22:46.234Z,50.804413
2022-12-02T04:23:46.242Z,50.804386
2022-12-02T04:24:46.231Z,50.804417
2022-12-02T04:25:46.243Z,50.804417
2022-12-02T04:26:46.219Z,50.804432
2022-12-02T04:27:46.252Z,50.804386
2022-12-02T04:28:46.193Z,50.804401
2022-12-02T04:29:46.198Z,50.804245
2022-12-02T04:30:46.254Z,50.804321
2022-12-02T04:31:46.249Z,50.804333
2022-12-02T04:32:46.190Z,50.804356
2022-12-02T04:33:46.223Z,50.804424
2022-12-02T04:34:46.143Z,50.804371
2022-12-02T04:35:46.152Z,50.804367
2022-12-02T04:36:46.139Z,50.804386
2022-12-02T04:37:46.135Z,50.804390
2022-12-02T04:38:46.119Z,50.804348
2022-12-02T04:39:46.160Z,50.804325
2022-12-02T04:40:46.100Z,50.804352
2022-12-02T04:41:46.114Z,50.804340
2022-12-02T04:42:46.104Z,50.804359
2022-12-02T04:43:46.091Z,50.804394
2022-12-02T04:44:46.076Z,50.804363
2022-12-02T04:45:46.122Z,50.804352
2022-12-02T04:46:46.188Z,50.804337
2022-12-02T04:47:46.054Z,50.804359
2022-12-02T04:48:46.030Z,50.804363
2022-12-02T04:49:46.036Z,50.804379
2022-12-02T04:50:46.041Z,50.804371
2022-12-02T04:51:46.099Z,50.804352
2022-12-02T04:52:46.031Z,50.804363
2022-12-02T04:53:46.014Z,50.804348
2022-12-02T04:54:46.008Z,50.804382
2022-12-02T04:55:46.013Z,50.804390
2022-12-02T04:56:45.994Z,50.804356
2022-12-02T04:57:46.023Z,50.804394
2022-12-02T04:58:46.001Z,50.804363
2022-12-02T04:59:45.966Z,50.804371
2022-12-02T05:00:45.963Z,50.804359
2022-12-02T05:01:45.964Z,50.804363
2022-12-02T05:02:45.988Z,50.804317
2022-12-02T05:03:46.039Z,50.804371
2022-12-02T05:04:45.973Z,50.804329
2022-12-02T05:05:45.918Z,50.804382
2022-12-02T05:06:45.932Z,50.804356
2022-12-02T05:07:45.969Z,50.804352
2022-12-02T05:08:45.917Z,50.804344
2022-12-02T05:09:46.321Z,50.804386
2022-12-02T05:10:45.892Z,50.804409
2022-12-02T05:11:45.900Z,50.804417
2022-12-02T05:12:45.882Z,50.804379
2022-12-02T05:13:45.870Z,50.804340
2022-12-02T05:14:45.881Z,50.804325
2022-12-02T05:15:45.954Z,50.804352
2022-12-02T05:16:45.843Z,50.804340
2022-12-02T05:17:45.840Z,50.804306
2022-12-02T05:18:45.842Z,50.804367
2022-12-02T05:19:45.850Z,50.804420
2022-12-02T05:20:45.826Z,50.804401
2022-12-02T05:21:45.872Z,50.804451
2022-12-02T05:22:45.811Z,50.804401
2022-12-02T05:23:45.827Z,50.804367
2022-12-02T05:24:45.808Z,50.804367
2022-12-02T05:25:45.797Z,50.804340
2022-12-02T05:26:45.791Z,50.804382
2022-12-02T05:27:45.827Z,50.804359
2022-12-02T05:28:45.781Z,50.804401
2022-12-02T05:29:45.774Z,50.804371
2022-12-02T05:30:45.758Z,50.804363
2022-12-02T05:31:45.837Z,50.804390
2022-12-02T05:32:45.748Z,50.804348
2022-12-02T05:33:45.774Z,50.804401
2022-12-02T05:34:45.722Z,50.804367
2022-12-02T05:35:45.712Z,50.804379
2022-12-02T05:36:45.761Z,50.804371
2022-12-02T05:37:45.727Z,50.804379
2022-12-02T05:38:45.690Z,50.804352
2022-12-02T05:39:45.713Z,50.804348
2022-12-02T05:40:45.698Z,50.804348
2022-12-02T05:41:45.692Z,50.804356
2022-12-02T05:42:45.680Z,50.804363
2022-12-02T05:43:45.678Z,50.804379
2022-12-02T05:44:45.668Z,50.804371
2022-12-02T05:45:45.707Z,50.804367
2022-12-02T05:46:45.678Z,50.804398
2022-12-02T05:47:45.652Z,50.804367
2022-12-02T05:48:45.660Z,50.804375
2022-12-02T05:49:45.679Z,50.804344
2022-12-02T05:50:45.617Z,50.804390
2022-12-02T05:51:49.041Z,50.804401
2022-12-02T05:52:46.630Z,50.804371
2022-12-02T05:53:45.610Z,50.804348
2022-12-02T05:54:45.601Z,50.804394
2022-12-02T05:55:45.585Z,50.804413
2022-12-02T05:56:45.566Z,50.804333
2022-12-02T05:57:45.626Z,50.804359
2022-12-02T05:58:45.568Z,50.804371
2022-12-02T05:59:45.549Z,50.804390
2022-12-02T06:00:45.536Z,50.804371
2022-12-02T06:01:45.701Z,50.804295
2022-12-02T06:02:45.947Z,50.804337
2022-12-02T06:03:45.552Z,50.804340
2022-12-02T06:04:45.531Z,50.804344
2022-12-02T06:05:45.514Z,50.804340
2022-12-02T06:06:45.506Z,50.804337
2022-12-02T06:07:45.585Z,50.804306
2022-12-02T06:08:45.506Z,50.804291
2022-12-02T06:09:45.529Z,50.804375
2022-12-02T06:10:45.604Z,50.804340
2022-12-02T06:11:45.488Z,50.804352
2022-12-02T06:12:45.467Z,50.804344
2022-12-02T06:13:45.487Z,50.804333
2022-12-02T06:14:45.445Z,50.804363
2022-12-02T06:15:45.594Z,50.804333
2022-12-02T06:16:45.575Z,50.804333
2022-12-02T06:17:45.434Z,50.804356
2022-12-02T06:18:45.426Z,50.804363
2022-12-02T06:19:45.414Z,50.804363
2022-12-02T06:20:45.419Z,50.804356
2022-12-02T06:21:45.444Z,50.804333
2022-12-02T06:22:45.423Z,50.804321
2022-12-02T06:23:45.385Z,50.804329
2022-12-02T06:24:45.375Z,50.804302
2022-12-02T06:25:45.442Z,50.804356
2022-12-02T06:26:45.374Z,50.804401
2022-12-02T06:27:45.431Z,50.804352
2022-12-02T06:28:45.370Z,50.804379
2022-12-02T06:29:45.352Z,50.804333
2022-12-02T06:30:45.352Z,50.804314
2022-12-02T06:31:45.407Z,50.804356
2022-12-02T06:33:46.381Z,50.804329
2022-12-02T06:34:45.326Z,50.804329
2022-12-02T06:35:45.334Z,50.804329
2022-12-02T06:36:45.297Z,50.804348
2022-12-02T06:37:45.309Z,50.804356
2022-12-02T06:38:45.295Z,50.804325
2022-12-02T06:40:11.983Z,50.804382
2022-12-02T06:40:46.268Z,50.804337
2022-12-02T06:41:45.276Z,50.804348
2022-12-02T06:42:45.264Z,50.804390
2022-12-02T06:43:45.234Z,50.804306
2022-12-02T06:44:45.272Z,50.804363
2022-12-02T06:46:02.160Z,50.804317
2022-12-02T06:46:45.255Z,50.804314
2022-12-02T06:47:45.248Z,50.804302
2022-12-02T06:48:45.209Z,50.804249
2022-12-02T06:49:45.218Z,50.804310
2022-12-02T06:50:45.337Z,50.804314
2022-12-02T06:51:45.271Z,50.804344
2022-12-02T06:52:45.200Z,50.804314
2022-12-02T06:53:46.189Z,50.804325
2022-12-02T06:54:45.172Z,50.804237
2022-12-02T06:55:45.206Z,50.804306
2022-12-02T06:56:45.154Z,50.804359
2022-12-02T06:57:45.199Z,50.804363
2022-12-02T06:58:45.153Z,50.804371
2022-12-02T06:59:45.165Z,50.804371
2022-12-02T07:00:45.290Z,50.804401
2022-12-02T07:01:45.191Z,50.804363
2022-12-02T07:02:45.172Z,50.804337
2022-12-02T07:03:45.173Z,50.804348
2022-12-02T07:04:45.114Z,50.804333
2022-12-02T07:05:45.111Z,50.804398
2022-12-02T07:06:45.082Z,50.804413
2022-12-02T07:07:45.118Z,50.804390
2022-12-02T07:08:45.094Z,50.804379
2022-12-02T07:09:45.122Z,50.804306
2022-12-02T07:10:45.066Z,50.804291
2022-12-02T07:11:45.052Z,50.804298
2022-12-02T07:12:45.044Z,50.804329
2022-12-02T07:13:45.050Z,50.804348
2022-12-02T07:14:45.056Z,50.804367
2022-12-02T07:15:45.071Z,50.804329
2022-12-02T07:16:45.082Z,50.804310
2022-12-02T07:17:45.007Z,50.804253
2022-12-02T07:18:45.001Z,50.804314
2022-12-02T07:19:44.999Z,50.804379
2022-12-02T07:20:45.010Z,50.804382
2022-12-02T07:21:50.343Z,50.804493
2022-12-02T07:22:45.980Z,50.804424
2022-12-02T07:23:45.000Z,50.804420
2022-12-02T07:24:44.967Z,50.804348
2022-12-02T07:25:44.981Z,50.804356
2022-12-02T07:26:44.944Z,50.804367
2022-12-02T07:27:45.013Z,50.804516
2022-12-02T07:28:44.912Z,50.804401
2022-12-02T07:29:44.909Z,50.804340
2022-12-02T07:30:45.082Z,50.804466
2022-12-02T07:31:44.930Z,50.804451
2022-12-02T07:32:44.919Z,50.804379
2022-12-02T07:33:44.932Z,50.804489
2022-12-02T07:34:44.923Z,50.804382
2022-12-02T07:35:44.887Z,50.804291
2022-12-02T07:36:44.890Z,50.804241
2022-12-02T07:37:44.870Z,50.804295
2022-12-02T07:39:45.919Z,50.804348
2022-12-02T07:40:44.870Z,50.804310
2022-12-02T07:41:44.867Z,50.804302
2022-12-02T07:42:44.823Z,50.804386
2022-12-02T07:43:44.838Z,50.804390
2022-12-02T07:44:44.823Z,50.804398
2022-12-02T07:45:44.967Z,50.804455
2022-12-02T07:46:44.819Z,50.804356
2022-12-02T07:47:44.820Z,50.804348
2022-12-02T07:48:44.827Z,50.804298
2022-12-02T07:49:44.787Z,50.804325
2022-12-02T07:50:44.781Z,50.804348
2022-12-02T07:51:44.831Z,50.804317
2022-12-02T07:52:44.777Z,50.804295
2022-12-02T07:53:44.760Z,50.804337
2022-12-02T07:54:44.753Z,50.804348
2022-12-02T07:55:44.747Z,50.804325
2022-12-02T07:56:44.747Z,50.804276
2022-12-02T07:57:44.808Z,50.804302
2022-12-02T07:59:10.884Z,50.804268
2022-12-02T07:59:45.720Z,50.804268
2022-12-02T08:00:44.720Z,50.804298
2022-12-02T08:01:44.747Z,50.804295
2022-12-02T08:02:44.695Z,50.804298
2022-12-02T08:03:44.723Z,50.804325
2022-12-02T08:04:44.713Z,50.804287
2022-12-02T08:05:44.690Z,50.804276
2022-12-02T08:06:44.684Z,50.804382
2022-12-02T08:07:44.730Z,50.804382
2022-12-02T08:08:44.660Z,50.804333
2022-12-02T08:09:44.678Z,50.804314
2022-12-02T08:10:44.634Z,50.804310
2022-12-02T08:11:44.638Z,50.804359
2022-12-02T08:12:44.636Z,50.804283
2022-12-02T08:13:44.622Z,50.804268
2022-12-02T08:14:44.636Z,50.804302
2022-12-02T08:15:45.405Z,50.804306
2022-12-02T08:16:44.641Z,50.804314
2022-12-02T08:17:44.600Z,50.804314
2022-12-02T08:18:44.566Z,50.804306
2022-12-02T08:19:44.566Z,50.804337
2022-12-02T08:20:44.577Z,50.804329
2022-12-02T08:21:44.749Z,50.804348
2022-12-02T08:22:44.559Z,50.804310
2022-12-02T08:23:44.561Z,50.804317
2022-12-02T08:24:44.534Z,50.804272
2022-12-02T08:25:44.516Z,50.804283
2022-12-02T08:26:44.522Z,50.804314
2022-12-02T08:27:45.690Z,50.804310
2022-12-02T08:28:45.584Z,50.804295
2022-12-02T08:29:44.510Z,50.804314
2022-12-02T08:30:44.549Z,50.804287
2022-12-02T08:31:44.491Z,50.804298
2022-12-02T08:32:44.500Z,50.804371
2022-12-02T08:33:44.510Z,50.804295
2022-12-02T08:34:44.480Z,50.804314
2022-12-02T08:35:44.467Z,50.804314
2022-12-02T08:36:44.460Z,50.804306
2022-12-02T08:37:44.571Z,50.804386
2022-12-02T08:38:44.433Z,50.804428
2022-12-02T08:39:44.490Z,50.804417
2022-12-02T08:40:44.417Z,50.804447
2022-12-02T08:41:44.427Z,50.804478
2022-12-02T08:42:44.387Z,50.804447
2022-12-02T08:43:44.402Z,50.804428
2022-12-02T08:44:44.408Z,50.804379
2022-12-02T08:45:44.438Z,50.804359
2022-12-02T08:46:47.139Z,50.804337
2022-12-02T08:47:45.381Z,50.804359
2022-12-02T08:48:44.370Z,50.804386
2022-12-02T08:49:44.358Z,50.804405
2022-12-02T08:50:44.346Z,50.804390
2022-12-02T08:51:44.420Z,50.804314
2022-12-02T08:52:44.354Z,50.804310
2022-12-02T08:53:44.354Z,50.804356
2022-12-02T08:54:44.356Z,50.804306
2022-12-02T08:55:44.328Z,50.804306
2022-12-02T08:56:44.329Z,50.804344
2022-12-02T08:57:44.377Z,50.804321
2022-12-02T08:58:44.299Z,50.804321
2022-12-02T08:59:44.298Z,50.804317
2022-12-02T09:00:44.302Z,50.804302
2022-12-02T09:01:44.329Z,50.804337
2022-12-02T09:02:44.341Z,50.804317
2022-12-02T09:03:44.318Z,50.804386
2022-12-02T09:04:44.267Z,50.804424
2022-12-02T09:05:44.272Z,50.804356
2022-12-02T09:06:44.265Z,50.804329
2022-12-02T09:07:44.272Z,50.804375
2022-12-02T09:08:44.307Z,50.804340
2022-12-02T09:09:44.267Z,50.804329
2022-12-02T09:10:44.247Z,50.804329
2022-12-02T09:11:44.208Z,50.804363
2022-12-02T09:12:44.226Z,50.804333
2022-12-02T09:13:44.213Z,50.804329
2022-12-02T09:14:44.199Z,50.804333
2022-12-02T09:15:44.275Z,50.804333
2022-12-02T09:16:44.179Z,50.804337
2022-12-02T09:17:44.171Z,50.804317
2022-12-02T09:18:44.172Z,50.804291
2022-12-02T09:19:44.162Z,50.804325
2022-12-02T09:20:44.180Z,50.804298
2022-12-02T09:21:44.200Z,50.804249
2022-12-02T09:22:44.138Z,50.804272
2022-12-02T09:23:50.182Z,50.804302
2022-12-02T09:24:45.127Z,50.804352
2022-12-02T09:25:44.114Z,50.804359
2022-12-02T09:26:44.111Z,50.804348
2022-12-02T09:27:44.369Z,50.804291
2022-12-02T09:28:44.104Z,50.804291
2022-12-02T09:29:44.083Z,50.804279
2022-12-02T09:30:44.131Z,50.804314
2022-12-02T09:31:44.352Z,50.804359
2022-12-02T09:32:44.054Z,50.804386
2022-12-02T09:33:44.116Z,50.804398
2022-12-02T09:34:44.047Z,50.804420
2022-12-02T09:35:44.047Z,50.804348
2022-12-02T09:36:44.052Z,50.804306
2022-12-02T09:37:44.029Z,50.804352
2022-12-02T09:38:51.074Z,50.804337
2022-12-02T09:39:44.078Z,50.804333
2022-12-02T09:40:44.010Z,50.804363
2022-12-02T09:41:44.021Z,50.804386
2022-12-02T09:42:44.010Z,50.804310
2022-12-02T09:43:43.980Z,50.804306
2022-12-02T09:44:44.011Z,50.804363
2022-12-02T09:45:44.029Z,50.804344
2022-12-02T09:46:44.001Z,50.804379
2022-12-02T09:47:43.970Z,50.804356
2022-12-02T09:48:43.958Z,50.804256
2022-12-02T09:49:43.946Z,50.804295
2022-12-02T09:50:43.950Z,50.804287
2022-12-02T09:51:43.987Z,50.804317
2022-12-02T09:52:43.952Z,50.804340
2022-12-02T09:53:43.906Z,50.804340
2022-12-02T09:54:43.912Z,50.804352
2022-12-02T09:55:43.914Z,50.804333
2022-12-02T09:56:43.901Z,50.804356
2022-12-02T09:57:43.957Z,50.804367
2022-12-02T09:58:43.911Z,50.804348
2022-12-02T09:59:43.880Z,50.804337
2022-12-02T10:00:43.868Z,50.804329
2022-12-02T10:01:43.912Z,50.804302
2022-12-02T10:02:43.895Z,50.804359
2022-12-02T10:03:43.912Z,50.804386
2022-12-02T10:04:43.839Z,50.804367
2022-12-02T10:05:43.817Z,50.804363
2022-12-02T10:06:43.827Z,50.804375
2022-12-02T10:07:43.850Z,50.804337
2022-12-02T10:08:43.793Z,50.804379
2022-12-02T10:09:43.861Z,50.804390
2022-12-02T10:10:43.791Z,50.804420
2022-12-02T10:11:43.799Z,50.804436
2022-12-02T10:12:43.792Z,50.804451
2022-12-02T10:13:43.767Z,50.804440
2022-12-02T10:14:43.787Z,50.804359
2022-12-02T10:15:43.892Z,50.804390
2022-12-02T10:16:43.758Z,50.804405
2022-12-02T10:17:43.717Z,50.804337
2022-12-02T10:18:43.738Z,50.804333
2022-12-02T10:19:43.709Z,50.804356
2022-12-02T10:20:43.730Z,50.804314
2022-12-02T10:21:43.778Z,50.804325
2022-12-02T10:22:43.694Z,50.804321
2022-12-02T10:23:43.701Z,50.804390
2022-12-02T10:24:43.688Z,50.804367
2022-12-02T10:25:43.702Z,50.804348
2022-12-02T10:26:43.690Z,50.804451
2022-12-02T10:27:43.731Z,50.804401
2022-12-02T10:28:43.672Z,50.804462
2022-12-02T10:29:47.443Z,50.804501
2022-12-02T10:30:44.648Z,50.804440
2022-12-02T10:31:43.701Z,50.804428
2022-12-02T10:32:43.656Z,50.804386
2022-12-02T10:33:44.008Z,50.804401
2022-12-02T10:34:43.636Z,50.804398
2022-12-02T10:35:43.611Z,50.804356
2022-12-02T10:36:43.618Z,50.804386
2022-12-02T10:37:43.607Z,50.804382
2022-12-02T10:38:43.588Z,50.804375
2022-12-02T10:39:43.623Z,50.804390
2022-12-02T10:40:43.577Z,50.804337
2022-12-02T10:41:43.580Z,50.804401
2022-12-02T10:42:43.558Z,50.804356
2022-12-02T10:43:43.571Z,50.804344
2022-12-02T10:44:43.581Z,50.804428
2022-12-02T10:45:58.705Z,50.804436
2022-12-02T10:46:43.629Z,50.804310
2022-12-02T10:47:43.537Z,50.804386
2022-12-02T10:48:43.521Z,50.804394
2022-12-02T10:49:43.510Z,50.804398
2022-12-02T10:50:43.538Z,50.804371
2022-12-02T10:51:43.547Z,50.804386
2022-12-02T10:52:44.466Z,50.804417
2022-12-02T10:53:43.574Z,50.804432
2022-12-02T10:54:44.130Z,50.804394
2022-12-02T10:55:43.479Z,50.804310
2022-12-02T10:56:43.499Z,50.804359
2022-12-02T10:57:43.508Z,50.804321
2022-12-02T10:58:43.473Z,50.804348
2022-12-02T10:59:43.449Z,50.804417
2022-12-02T11:00:44.575Z,50.804417
2022-12-02T11:01:43.526Z,50.804363
2022-12-02T11:02:43.488Z,50.804386
2022-12-02T11:03:43.482Z,50.804363
2022-12-02T11:04:43.412Z,50.804344
2022-12-02T11:05:43.419Z,50.804325
2022-12-02T11:06:43.384Z,50.804417
2022-12-02T11:07:43.470Z,50.804447
2022-12-02T11:08:43.375Z,50.804417
2022-12-02T11:09:43.469Z,50.804386
2022-12-02T11:10:43.388Z,50.804432
2022-12-02T11:11:43.389Z,50.804420
2022-12-02T11:12:43.388Z,50.804409
2022-12-02T11:13:47.771Z,50.804432
2022-12-02T11:14:43.340Z,50.804386
2022-12-02T11:15:43.406Z,50.804443
2022-12-02T11:16:53.113Z,50.804508
2022-12-02T11:17:44.443Z,50.804451
2022-12-02T11:18:43.328Z,50.804379
2022-12-02T11:19:43.316Z,50.804348
2022-12-02T11:20:43.327Z,50.804394
2022-12-02T11:21:43.341Z,50.804413
2022-12-02T11:22:43.277Z,50.804424
2022-12-02T11:23:43.282Z,50.804401
2022-12-02T11:24:43.275Z,50.804367
2022-12-02T11:25:43.286Z,50.804344
2022-12-02T11:26:43.270Z,50.804348